sensor_id;sensor_type;location;lat;lon;timestamp;pressure;altitude;pressure_sealevel;temperature;humidity
53900;BME280;40509;32.858;-116.858;2023-05-29T00:01:27;97850.56;;;22.86;50.27
53900;BME280;40509;32.858;-116.858;2023-05-29T00:03:54;97858.47;;;22.86;49.94
53900;BME280;40509;32.858;-116.858;2023-05-29T00:06:21;97852.53;;;22.84;50.33
53900;BME280;40509;32.858;-116.858;2023-05-29T00:08:48;97854.50;;;22.82;50.06
53900;BME280;40509;32.858;-116.858;2023-05-29T00:11:15;97846.78;;;22.89;49.97
53900;BME280;40509;32.858;-116.858;2023-05-29T00:13:43;97842.34;;;22.89;50.17
53900;BME280;40509;32.858;-116.858;2023-05-29T00:16:10;97846.44;;;22.92;49.94
53900;BME280;40509;32.858;-116.858;2023-05-29T00:18:37;97844.47;;;22.86;50.41
53900;BME280;40509;32.858;-116.858;2023-05-29T00:21:12;97843.28;;;22.80;50.45
53900;BME280;40509;32.858;-116.858;2023-05-29T00:23:41;97841.34;;;22.82;50.36
53900;BME280;40509;32.858;-116.858;2023-05-29T00:26:08;97838.38;;;22.85;50.36
53900;BME280;40509;32.858;-116.858;2023-05-29T00:28:38;97839.53;;;22.91;50.21
53900;BME280;40509;32.858;-116.858;2023-05-29T00:31:05;97837.91;;;22.90;50.08
53900;BME280;40509;32.858;-116.858;2023-05-29T00:33:32;97842.34;;;22.89;49.96
53900;BME280;40509;32.858;-116.858;2023-05-29T00:36:00;97839.53;;;22.91;50.14
53900;BME280;40509;32.858;-116.858;2023-05-29T00:38:28;97842.16;;;22.91;50.37
53900;BME280;40509;32.858;-116.858;2023-05-29T00:40:55;97846.78;;;22.89;50.22
53900;BME280;40509;32.858;-116.858;2023-05-29T00:43:22;97841.84;;;22.86;50.24
53900;BME280;40509;32.858;-116.858;2023-05-29T00:45:50;97836.41;;;22.79;50.80
53900;BME280;40509;32.858;-116.858;2023-05-29T00:48:17;97841.53;;;22.89;50.19
53900;BME280;40509;32.858;-116.858;2023-05-29T00:50:44;97834.44;;;22.89;50.36
53900;BME280;40509;32.858;-116.858;2023-05-29T00:53:16;97826.88;;;22.95;50.00
53900;BME280;40509;32.858;-116.858;2023-05-29T00:55:44;97831.50;;;22.93;50.39
53900;BME280;40509;32.858;-116.858;2023-05-29T00:58:12;97826.72;;;22.96;50.42
53900;BME280;40509;32.858;-116.858;2023-05-29T01:00:39;97824.59;;;22.92;50.28
53900;BME280;40509;32.858;-116.858;2023-05-29T01:03:08;97828.69;;;22.94;50.27
53900;BME280;40509;32.858;-116.858;2023-05-29T01:05:36;97827.03;;;22.93;50.19
53900;BME280;40509;32.858;-116.858;2023-05-29T01:08:04;97818.97;;;22.86;50.31
53900;BME280;40509;32.858;-116.858;2023-05-29T01:10:31;97823.59;;;22.84;50.45
53900;BME280;40509;32.858;-116.858;2023-05-29T01:13:12;97819.16;;;22.93;50.44
53900;BME280;40509;32.858;-116.858;2023-05-29T01:15:53;97818.81;;;22.96;50.13
53900;BME280;40509;32.858;-116.858;2023-05-29T01:18:57;97809.25;;;22.95;50.55
53900;BME280;40509;32.858;-116.858;2023-05-29T01:21:42;97812.41;;;22.90;50.41
53900;BME280;40509;32.858;-116.858;2023-05-29T01:25:04;97815.19;;;22.89;50.70
53900;BME280;40509;32.858;-116.858;2023-05-29T01:27:36;97809.94;;;22.89;50.59
53900;BME280;40509;32.858;-116.858;2023-05-29T01:30:08;97812.41;;;22.90;50.50
53900;BME280;40509;32.858;-116.858;2023-05-29T01:32:36;97814.53;;;22.87;50.68
53900;BME280;40509;32.858;-116.858;2023-05-29T01:35:05;97810.38;;;22.68;50.56
53900;BME280;40509;32.858;-116.858;2023-05-29T01:37:32;97804.47;;;22.66;50.41
53900;BME280;40509;32.858;-116.858;2023-05-29T01:40:00;97814.31;;;22.64;50.67
53900;BME280;40509;32.858;-116.858;2023-05-29T01:42:28;97819.59;;;22.72;50.69
53900;BME280;40509;32.858;-116.858;2023-05-29T01:44:58;97808.09;;;22.65;50.83
53900;BME280;40509;32.858;-116.858;2023-05-29T01:47:26;97809.06;;;22.72;50.26
53900;BME280;40509;32.858;-116.858;2023-05-29T01:49:54;97807.28;;;22.64;50.59
53900;BME280;40509;32.858;-116.858;2023-05-29T01:52:22;97807.72;;;22.60;50.29
53900;BME280;40509;32.858;-116.858;2023-05-29T01:54:50;97813.34;;;22.65;50.27
53900;BME280;40509;32.858;-116.858;2023-05-29T01:57:17;97807.91;;;22.66;50.22
53900;BME280;40509;32.858;-116.858;2023-05-29T01:59:44;97806.44;;;22.72;50.55
53900;BME280;40509;32.858;-116.858;2023-05-29T02:02:12;97803.81;;;22.72;50.27
53900;BME280;40509;32.858;-116.858;2023-05-29T02:04:39;97804.97;;;22.69;50.09
53900;BME280;40509;32.858;-116.858;2023-05-29T02:07:06;97802.19;;;22.71;49.83
53900;BME280;40509;32.858;-116.858;2023-05-29T02:09:35;97800.38;;;22.71;49.87
53900;BME280;40509;32.858;-116.858;2023-05-29T02:12:02;97797.22;;;22.68;50.12
53900;BME280;40509;32.858;-116.858;2023-05-29T02:14:29;97798.72;;;22.70;49.95
53900;BME280;40509;32.858;-116.858;2023-05-29T02:16:59;97804.13;;;22.69;49.56
53900;BME280;40509;32.858;-116.858;2023-05-29T02:19:27;97807.91;;;22.66;49.96
53900;BME280;40509;32.858;-116.858;2023-05-29T02:21:55;97811.56;;;22.73;49.53
53900;BME280;40509;32.858;-116.858;2023-05-29T02:24:22;97803.00;;;22.71;49.68
53900;BME280;40509;32.858;-116.858;2023-05-29T02:26:50;97804.47;;;22.66;50.11
53900;BME280;40509;32.858;-116.858;2023-05-29T02:29:17;97803.50;;;22.67;49.68
53900;BME280;40509;32.858;-116.858;2023-05-29T02:31:44;97806.78;;;22.69;49.55
53900;BME280;40509;32.858;-116.858;2023-05-29T02:34:11;97809.91;;;22.72;49.80
53900;BME280;40509;32.858;-116.858;2023-05-29T02:36:38;97811.88;;;22.70;49.79
53900;BME280;40509;32.858;-116.858;2023-05-29T02:39:06;97822.56;;;22.69;49.74
53900;BME280;40509;32.858;-116.858;2023-05-29T02:41:33;97816.31;;;22.62;49.54
53900;BME280;40509;32.858;-116.858;2023-05-29T02:44:01;97825.69;;;22.64;50.03
53900;BME280;40509;32.858;-116.858;2023-05-29T02:46:28;97829.13;;;22.65;49.92
53900;BME280;40509;32.858;-116.858;2023-05-29T02:48:55;97832.44;;;22.67;49.91
53900;BME280;40509;32.858;-116.858;2023-05-29T02:51:22;97834.38;;;22.56;50.02
53900;BME280;40509;32.858;-116.858;2023-05-29T02:53:49;97845.88;;;22.64;49.81
53900;BME280;40509;32.858;-116.858;2023-05-29T02:56:17;97844.28;;;22.63;49.53
53900;BME280;40509;32.858;-116.858;2023-05-29T02:58:44;97842.97;;;22.67;49.85
53900;BME280;40509;32.858;-116.858;2023-05-29T03:01:11;97841.44;;;22.56;50.26
53900;BME280;40509;32.858;-116.858;2023-05-29T03:03:38;97841.31;;;22.66;49.54
53900;BME280;40509;32.858;-116.858;2023-05-29T03:06:06;97848.56;;;22.80;49.98
53900;BME280;40509;32.858;-116.858;2023-05-29T03:08:35;97846.91;;;22.71;50.16
53900;BME280;40509;32.858;-116.858;2023-05-29T03:11:12;97850.19;;;22.73;50.00
53900;BME280;40509;32.858;-116.858;2023-05-29T03:13:40;97850.84;;;22.67;50.38
53900;BME280;40509;32.858;-116.858;2023-05-29T03:16:09;97857.44;;;22.71;50.15
53900;BME280;40509;32.858;-116.858;2023-05-29T03:18:39;97864.00;;;22.67;51.04
53900;BME280;40509;32.858;-116.858;2023-05-29T03:21:06;97864.69;;;22.77;50.33
53900;BME280;40509;32.858;-116.858;2023-05-29T03:23:34;97865.81;;;22.74;50.74
53900;BME280;40509;32.858;-116.858;2023-05-29T03:26:02;97863.00;;;22.68;51.20
53900;BME280;40509;32.858;-116.858;2023-05-29T03:28:32;97879.50;;;22.78;50.97
53900;BME280;40509;32.858;-116.858;2023-05-29T03:31:02;97873.59;;;22.84;51.24
53900;BME280;40509;32.858;-116.858;2023-05-29T03:33:30;97877.22;;;22.83;51.51
53900;BME280;40509;32.858;-116.858;2023-05-29T03:36:23;97880.97;;;22.81;52.07
53900;BME280;40509;32.858;-116.858;2023-05-29T03:38:51;97877.66;;;22.79;51.54
53900;BME280;40509;32.858;-116.858;2023-05-29T03:41:19;97878.69;;;22.86;52.11
53900;BME280;40509;32.858;-116.858;2023-05-29T03:43:47;97876.53;;;22.81;52.41
53900;BME280;40509;32.858;-116.858;2023-05-29T03:46:15;97883.31;;;22.92;53.27
53900;BME280;40509;32.858;-116.858;2023-05-29T03:48:44;97886.09;;;22.90;52.83
53900;BME280;40509;32.858;-116.858;2023-05-29T03:51:11;97891.38;;;22.90;53.52
53900;BME280;40509;32.858;-116.858;2023-05-29T03:53:39;97886.09;;;22.90;53.13
53900;BME280;40509;32.858;-116.858;2023-05-29T03:56:08;97890.84;;;22.87;52.93
53900;BME280;40509;32.858;-116.858;2023-05-29T03:58:36;97897.44;;;22.91;53.04
53900;BME280;40509;32.858;-116.858;2023-05-29T04:01:03;97905.84;;;22.86;53.06
53900;BME280;40509;32.858;-116.858;2023-05-29T04:03:31;97909.09;;;22.80;52.75
53900;BME280;40509;32.858;-116.858;2023-05-29T04:05:59;97904.00;;;22.87;52.54
53900;BME280;40509;32.858;-116.858;2023-05-29T04:08:26;97909.25;;;22.79;52.68
53900;BME280;40509;32.858;-116.858;2023-05-29T04:10:54;97909.59;;;22.76;52.86
53900;BME280;40509;32.858;-116.858;2023-05-29T04:13:22;97916.34;;;22.78;53.08
53900;BME280;40509;32.858;-116.858;2023-05-29T04:15:49;97912.72;;;22.79;53.33
53900;BME280;40509;32.858;-116.858;2023-05-29T04:18:20;97917.69;;;22.90;53.48
53900;BME280;40509;32.858;-116.858;2023-05-29T04:20:48;97909.44;;;22.85;53.07
53900;BME280;40509;32.858;-116.858;2023-05-29T04:23:16;97920.81;;;22.86;53.55
53900;BME280;40509;32.858;-116.858;2023-05-29T04:25:44;97921.94;;;22.83;53.43
53900;BME280;40509;32.858;-116.858;2023-05-29T04:28:12;97915.19;;;22.81;53.57
53900;BME280;40509;32.858;-116.858;2023-05-29T04:30:39;97924.88;;;22.80;53.31
53900;BME280;40509;32.858;-116.858;2023-05-29T04:33:08;97921.75;;;22.77;53.34
53900;BME280;40509;32.858;-116.858;2023-05-29T04:35:43;97920.31;;;22.90;53.27
53900;BME280;40509;32.858;-116.858;2023-05-29T04:38:11;97928.38;;;22.89;53.19
53900;BME280;40509;32.858;-116.858;2023-05-29T04:40:38;97938.41;;;22.94;53.39
53900;BME280;40509;32.858;-116.858;2023-05-29T04:43:07;97934.81;;;22.95;52.88
53900;BME280;40509;32.858;-116.858;2023-05-29T04:45:54;97937.75;;;22.92;53.42
53900;BME280;40509;32.858;-116.858;2023-05-29T04:48:22;97941.72;;;22.96;53.35
53900;BME280;40509;32.858;-116.858;2023-05-29T04:50:50;97945.50;;;22.93;53.38
53900;BME280;40509;32.858;-116.858;2023-05-29T04:53:17;97940.41;;;22.92;53.46
53900;BME280;40509;32.858;-116.858;2023-05-29T04:55:44;97943.03;;;22.92;53.51
53900;BME280;40509;32.858;-116.858;2023-05-29T04:58:11;97951.38;;;22.87;52.96
53900;BME280;40509;32.858;-116.858;2023-05-29T05:00:40;97951.38;;;22.87;53.33
53900;BME280;40509;32.858;-116.858;2023-05-29T05:03:07;97955.69;;;22.88;53.26
53900;BME280;40509;32.858;-116.858;2023-05-29T05:05:36;97953.03;;;22.88;53.47
53900;BME280;40509;32.858;-116.858;2023-05-29T05:08:03;97946.28;;;22.85;53.49
53900;BME280;40509;32.858;-116.858;2023-05-29T05:10:30;97946.00;;;22.88;53.28
53900;BME280;40509;32.858;-116.858;2023-05-29T05:12:58;97954.88;;;22.87;53.59
53900;BME280;40509;32.858;-116.858;2023-05-29T05:15:26;97958.31;;;22.88;53.40
53900;BME280;40509;32.858;-116.858;2023-05-29T05:17:53;97958.78;;;22.83;53.09
53900;BME280;40509;32.858;-116.858;2023-05-29T05:20:20;97951.56;;;22.85;53.13
53900;BME280;40509;32.858;-116.858;2023-05-29T05:22:54;97952.88;;;22.89;53.39
53900;BME280;40509;32.858;-116.858;2023-05-29T05:25:23;97946.28;;;22.85;53.27
53900;BME280;40509;32.858;-116.858;2023-05-29T05:27:50;97949.44;;;22.89;52.74
53900;BME280;40509;32.858;-116.858;2023-05-29T05:30:19;97946.81;;;22.89;53.31
53900;BME280;40509;32.858;-116.858;2023-05-29T05:32:46;97949.44;;;22.89;52.90
53900;BME280;40509;32.858;-116.858;2023-05-29T05:35:14;97945.31;;;22.86;53.09
53900;BME280;40509;32.858;-116.858;2023-05-29T05:37:41;97941.69;;;22.87;53.15
53900;BME280;40509;32.858;-116.858;2023-05-29T05:40:09;97940.22;;;22.85;52.96
53900;BME280;40509;32.858;-116.858;2023-05-29T05:42:47;97939.41;;;22.84;52.99
53900;BME280;40509;32.858;-116.858;2023-05-29T05:45:15;97943.50;;;22.87;52.99
53900;BME280;40509;32.858;-116.858;2023-05-29T05:47:43;97940.22;;;22.85;52.81
53900;BME280;40509;32.858;-116.858;2023-05-29T05:50:10;97947.13;;;22.86;52.66
53900;BME280;40509;32.858;-116.858;2023-05-29T05:52:40;97950.75;;;22.85;53.18
53900;BME280;40509;32.858;-116.858;2023-05-29T05:55:07;97949.09;;;22.84;53.05
53900;BME280;40509;32.858;-116.858;2023-05-29T05:57:35;97959.44;;;22.85;52.92
53900;BME280;40509;32.858;-116.858;2023-05-29T06:00:05;97966.00;;;22.81;52.81
53900;BME280;40509;32.858;-116.858;2023-05-29T06:02:45;97958.97;;;22.82;53.08
53900;BME280;40509;32.858;-116.858;2023-05-29T06:05:29;97956.31;;;22.82;52.68
53900;BME280;40509;32.858;-116.858;2023-05-29T06:07:56;97950.75;;;22.85;52.80
53900;BME280;40509;32.858;-116.858;2023-05-29T06:10:24;97949.25;;;22.82;52.64
53900;BME280;40509;32.858;-116.858;2023-05-29T06:12:52;97944.66;;;22.84;52.90
53900;BME280;40509;32.858;-116.858;2023-05-29T06:15:24;97942.16;;;22.83;52.91
53900;BME280;40509;32.858;-116.858;2023-05-29T06:17:52;97949.75;;;22.86;52.50
53900;BME280;40509;32.858;-116.858;2023-05-29T06:20:22;97954.34;;;22.84;52.51
53900;BME280;40509;32.858;-116.858;2023-05-29T06:22:49;97954.34;;;22.84;52.85
53900;BME280;40509;32.858;-116.858;2023-05-29T06:25:19;97949.94;;;22.84;52.62
53900;BME280;40509;32.858;-116.858;2023-05-29T06:27:46;97958.59;;;22.77;52.82
53900;BME280;40509;32.858;-116.858;2023-05-29T06:30:15;97959.41;;;22.77;52.71
53900;BME280;40509;32.858;-116.858;2023-05-29T06:32:42;97959.41;;;22.77;52.75
53900;BME280;40509;32.858;-116.858;2023-05-29T06:35:09;97956.94;;;22.76;52.55
53900;BME280;40509;32.858;-116.858;2023-05-29T06:37:36;97954.66;;;22.81;52.49
53900;BME280;40509;32.858;-116.858;2023-05-29T06:40:06;97961.06;;;22.78;52.74
53900;BME280;40509;32.858;-116.858;2023-05-29T06:42:34;97957.94;;;22.74;52.42
53900;BME280;40509;32.858;-116.858;2023-05-29T06:45:07;97957.94;;;22.74;52.83
53900;BME280;40509;32.858;-116.858;2023-05-29T06:47:34;97959.75;;;22.74;52.43
53900;BME280;40509;32.858;-116.858;2023-05-29T06:50:02;97952.00;;;22.72;52.26
53900;BME280;40509;32.858;-116.858;2023-05-29T06:52:29;97951.16;;;22.72;52.65
53900;BME280;40509;32.858;-116.858;2023-05-29T06:55:23;97952.81;;;22.73;52.40
53900;BME280;40509;32.858;-116.858;2023-05-29T06:57:50;97945.59;;;22.75;52.46
53900;BME280;40509;32.858;-116.858;2023-05-29T07:00:17;97940.63;;;22.72;51.80
53900;BME280;40509;32.858;-116.858;2023-05-29T07:03:05;97950.19;;;22.73;52.14
53900;BME280;40509;32.858;-116.858;2023-05-29T07:05:33;97942.28;;;22.73;52.32
53900;BME280;40509;32.858;-116.858;2023-05-29T07:08:01;97940.97;;;22.69;52.37
53900;BME280;40509;32.858;-116.858;2023-05-29T07:10:28;97937.69;;;22.67;52.34
53900;BME280;40509;32.858;-116.858;2023-05-29T07:12:56;97945.09;;;22.71;52.45
53900;BME280;40509;32.858;-116.858;2023-05-29T07:15:24;97938.50;;;22.67;52.47
53900;BME280;40509;32.858;-116.858;2023-05-29T07:17:51;97938.50;;;22.67;52.37
53900;BME280;40509;32.858;-116.858;2023-05-29T07:20:23;97938.66;;;22.66;52.29
53900;BME280;40509;32.858;-116.858;2023-05-29T07:22:52;97943.25;;;22.64;52.08
53900;BME280;40509;32.858;-116.858;2023-05-29T07:25:20;97944.91;;;22.65;51.83
53900;BME280;40509;32.858;-116.858;2023-05-29T07:27:47;97936.34;;;22.63;51.85
53900;BME280;40509;32.858;-116.858;2023-05-29T07:30:15;97938.81;;;22.64;51.70
53900;BME280;40509;32.858;-116.858;2023-05-29T07:32:43;97939.13;;;22.61;51.99
53900;BME280;40509;32.858;-116.858;2023-05-29T07:35:11;97934.69;;;22.62;52.20
53900;BME280;40509;32.858;-116.858;2023-05-29T07:37:38;97933.84;;;22.61;51.88
53900;BME280;40509;32.858;-116.858;2023-05-29T07:40:06;97937.16;;;22.63;51.93
53900;BME280;40509;32.858;-116.858;2023-05-29T07:42:52;97935.03;;;22.59;51.85
53900;BME280;40509;32.858;-116.858;2023-05-29T07:45:21;97930.41;;;22.61;51.56
53900;BME280;40509;32.858;-116.858;2023-05-29T07:47:51;97928.75;;;22.60;51.98
53900;BME280;40509;32.858;-116.858;2023-05-29T07:50:18;97922.00;;;22.57;52.23
53900;BME280;40509;32.858;-116.858;2023-05-29T07:52:46;97927.25;;;22.57;52.21
53900;BME280;40509;32.858;-116.858;2023-05-29T07:55:14;97926.44;;;22.56;51.90
53900;BME280;40509;32.858;-116.858;2023-05-29T07:57:44;97933.53;;;22.56;51.93
53900;BME280;40509;32.858;-116.858;2023-05-29T08:00:12;97929.88;;;22.57;51.67
53900;BME280;40509;32.858;-116.858;2023-05-29T08:02:46;97928.41;;;22.54;51.75
53900;BME280;40509;32.858;-116.858;2023-05-29T08:05:39;97921.50;;;22.53;52.09
53900;BME280;40509;32.858;-116.858;2023-05-29T08:08:11;97929.41;;;22.53;51.68
53900;BME280;40509;32.858;-116.858;2023-05-29T08:10:39;97933.66;;;22.54;51.65
53900;BME280;40509;32.858;-116.858;2023-05-29T08:13:06;97927.75;;;22.52;52.07
53900;BME280;40509;32.858;-116.858;2023-05-29T08:15:36;97931.03;;;22.54;51.62
53900;BME280;40509;32.858;-116.858;2023-05-29T08:18:04;97921.50;;;22.53;51.63
53900;BME280;40509;32.858;-116.858;2023-05-29T08:20:32;97928.41;;;22.54;51.70
53900;BME280;40509;32.858;-116.858;2023-05-29T08:23:01;97936.78;;;22.50;51.47
53900;BME280;40509;32.858;-116.858;2023-05-29T08:25:28;97934.31;;;22.48;51.68
53900;BME280;40509;32.858;-116.858;2023-05-29T08:27:55;97933.63;;;22.46;51.58
53900;BME280;40509;32.858;-116.858;2023-05-29T08:30:22;97938.88;;;22.46;51.84
53900;BME280;40509;32.858;-116.858;2023-05-29T08:32:50;97931.16;;;22.45;51.67
53900;BME280;40509;32.858;-116.858;2023-05-29T08:35:17;97929.19;;;22.47;51.71
53900;BME280;40509;32.858;-116.858;2023-05-29T08:37:44;97930.34;;;22.44;51.79
53900;BME280;40509;32.858;-116.858;2023-05-29T08:40:12;97932.81;;;22.46;51.75
53900;BME280;40509;32.858;-116.858;2023-05-29T08:42:45;97934.91;;;22.42;51.95
53900;BME280;40509;32.858;-116.858;2023-05-29T08:45:14;97942.69;;;22.44;51.82
53900;BME280;40509;32.858;-116.858;2023-05-29T08:47:43;97940.19;;;22.42;51.92
53900;BME280;40509;32.858;-116.858;2023-05-29T08:50:11;97926.38;;;22.40;51.60
53900;BME280;40509;32.858;-116.858;2023-05-29T08:52:40;97926.38;;;22.40;51.65
53900;BME280;40509;32.858;-116.858;2023-05-29T08:55:07;97920.13;;;22.41;51.77
53900;BME280;40509;32.858;-116.858;2023-05-29T08:57:36;97921.13;;;22.40;51.57
53900;BME280;40509;32.858;-116.858;2023-05-29T09:00:07;97921.13;;;22.40;51.45
53900;BME280;40509;32.858;-116.858;2023-05-29T09:02:39;97922.78;;;22.41;51.62
53900;BME280;40509;32.858;-116.858;2023-05-29T09:05:07;97909.25;;;22.36;51.84
53900;BME280;40509;32.858;-116.858;2023-05-29T09:07:37;97914.34;;;22.37;51.52
53900;BME280;40509;32.858;-116.858;2023-05-29T09:10:06;97914.53;;;22.36;51.47
53900;BME280;40509;32.858;-116.858;2023-05-29T09:12:34;97913.53;;;22.37;51.42
53900;BME280;40509;32.858;-116.858;2023-05-29T09:15:02;97913.69;;;22.35;51.56
53900;BME280;40509;32.858;-116.858;2023-05-29T09:17:31;97924.31;;;22.34;51.76
53900;BME280;40509;32.858;-116.858;2023-05-29T09:19:59;97923.38;;;22.35;51.42
53900;BME280;40509;32.858;-116.858;2023-05-29T09:22:27;97926.94;;;22.34;51.65
53900;BME280;40509;32.858;-116.858;2023-05-29T09:24:54;97924.31;;;22.34;51.68
53900;BME280;40509;32.858;-116.858;2023-05-29T09:27:22;97925.31;;;22.33;51.83
53900;BME280;40509;32.858;-116.858;2023-05-29T09:29:49;97922.56;;;22.34;51.34
53900;BME280;40509;32.858;-116.858;2023-05-29T09:32:17;97922.00;;;22.31;51.48
53900;BME280;40509;32.858;-116.858;2023-05-29T09:34:45;97919.22;;;22.32;51.71
53900;BME280;40509;32.858;-116.858;2023-05-29T09:37:12;97918.56;;;22.30;51.37
53900;BME280;40509;32.858;-116.858;2023-05-29T09:39:49;97917.88;;;22.28;51.50
53900;BME280;40509;32.858;-116.858;2023-05-29T09:42:18;97909.84;;;22.30;51.70
53900;BME280;40509;32.858;-116.858;2023-05-29T09:44:49;97910.00;;;22.28;51.39
53900;BME280;40509;32.858;-116.858;2023-05-29T09:47:20;97909.19;;;22.28;51.40
53900;BME280;40509;32.858;-116.858;2023-05-29T09:49:48;97912.09;;;22.24;51.47
53900;BME280;40509;32.858;-116.858;2023-05-29T09:52:21;97911.28;;;22.24;51.28
53900;BME280;40509;32.858;-116.858;2023-05-29T09:54:48;97908.81;;;22.22;51.59
53900;BME280;40509;32.858;-116.858;2023-05-29T09:57:17;97915.75;;;22.23;51.41
53900;BME280;40509;32.858;-116.858;2023-05-29T09:59:45;97914.75;;;22.24;51.42
53900;BME280;40509;32.858;-116.858;2023-05-29T10:02:15;97926.53;;;22.20;51.57
53900;BME280;40509;32.858;-116.858;2023-05-29T10:04:43;97922.94;;;22.21;51.52
53900;BME280;40509;32.858;-116.858;2023-05-29T10:07:20;97921.81;;;22.24;51.23
53900;BME280;40509;32.858;-116.858;2023-05-29T10:09:55;97928.03;;;22.23;51.27
53900;BME280;40509;32.858;-116.858;2023-05-29T10:12:26;97919.03;;;22.26;51.45
53900;BME280;40509;32.858;-116.858;2023-05-29T10:14:59;97919.66;;;22.19;51.39
53900;BME280;40509;32.858;-116.858;2023-05-29T10:17:32;97921.28;;;22.20;51.50
53900;BME280;40509;32.858;-116.858;2023-05-29T10:20:02;97925.22;;;22.16;51.40
53900;BME280;40509;32.858;-116.858;2023-05-29T10:22:33;97928.53;;;22.18;51.30
53900;BME280;40509;32.858;-116.858;2023-05-29T10:25:02;97929.34;;;22.19;51.32
53900;BME280;40509;32.858;-116.858;2023-05-29T10:27:30;97928.69;;;22.17;51.33
53900;BME280;40509;32.858;-116.858;2023-05-29T10:30:11;97925.91;;;22.18;51.38
53900;BME280;40509;32.858;-116.858;2023-05-29T10:33:17;97929.81;;;22.14;51.35
53900;BME280;40509;32.858;-116.858;2023-05-29T10:35:55;97935.38;;;22.11;51.41
53900;BME280;40509;32.858;-116.858;2023-05-29T10:38:27;97929.13;;;22.12;51.23
53900;BME280;40509;32.858;-116.858;2023-05-29T10:40:54;97929.59;;;22.08;51.33
53900;BME280;40509;32.858;-116.858;2023-05-29T10:43:33;97938.03;;;22.11;51.16
53900;BME280;40509;32.858;-116.858;2023-05-29T10:46:02;97932.75;;;22.11;51.45
53900;BME280;40509;32.858;-116.858;2023-05-29T10:48:40;97938.31;;;22.08;51.29
53900;BME280;40509;32.858;-116.858;2023-05-29T10:51:07;97941.94;;;22.07;51.16
53900;BME280;40509;32.858;-116.858;2023-05-29T10:53:35;97941.78;;;22.09;51.13
53900;BME280;40509;32.858;-116.858;2023-05-29T10:56:15;97944.56;;;22.07;51.31
53900;BME280;40509;32.858;-116.858;2023-05-29T10:58:52;97949.94;;;22.05;51.18
53900;BME280;40509;32.858;-116.858;2023-05-29T11:01:24;97952.56;;;22.05;51.48
53900;BME280;40509;32.858;-116.858;2023-05-29T11:06:44;97945.53;;;22.06;51.27
53900;BME280;40509;32.858;-116.858;2023-05-29T11:09:28;97951.94;;;22.03;51.16
53900;BME280;40509;32.858;-116.858;2023-05-29T11:12:14;97941.94;;;22.07;51.27
53900;BME280;40509;32.858;-116.858;2023-05-29T11:15:01;97942.22;;;22.04;51.20
53900;BME280;40509;32.858;-116.858;2023-05-29T11:17:31;97941.72;;;22.00;51.36
53900;BME280;40509;32.858;-116.858;2023-05-29T11:20:02;97947.47;;;22.04;51.00
53900;BME280;40509;32.858;-116.858;2023-05-29T11:22:56;97941.72;;;22.00;51.32
53900;BME280;40509;32.858;-116.858;2023-05-29T11:25:27;97938.41;;;21.98;51.44
53900;BME280;40509;32.858;-116.858;2023-05-29T11:27:55;97935.41;;;21.93;51.54
53900;BME280;40509;32.858;-116.858;2023-05-29T11:30:22;97936.91;;;21.96;51.28
53900;BME280;40509;32.858;-116.858;2023-05-29T11:32:49;97940.22;;;21.98;51.17
53900;BME280;40509;32.858;-116.858;2023-05-29T11:35:21;97938.41;;;21.98;51.23
53900;BME280;40509;32.858;-116.858;2023-05-29T11:37:49;97932.19;;;21.99;51.29
53900;BME280;40509;32.858;-116.858;2023-05-29T11:40:17;97938.56;;;21.97;51.11
53900;BME280;40509;32.858;-116.858;2023-05-29T11:42:46;97931.81;;;21.94;51.22
53900;BME280;40509;32.858;-116.858;2023-05-29T11:45:20;97931.28;;;21.90;51.50
53900;BME280;40509;32.858;-116.858;2023-05-29T11:47:56;97926.72;;;21.93;51.00
53900;BME280;40509;32.858;-116.858;2023-05-29T11:50:29;97925.75;;;21.94;51.10
53900;BME280;40509;32.858;-116.858;2023-05-29T11:52:58;97930.16;;;21.93;51.17
53900;BME280;40509;32.858;-116.858;2023-05-29T11:55:27;97935.56;;;21.92;51.25
53900;BME280;40509;32.858;-116.858;2023-05-29T11:58:04;97937.53;;;21.89;51.04
53900;BME280;40509;32.858;-116.858;2023-05-29T12:00:37;97935.03;;;21.88;51.05
53900;BME280;40509;32.858;-116.858;2023-05-29T12:03:05;97939.63;;;21.86;51.38
53900;BME280;40509;32.858;-116.858;2023-05-29T12:05:47;97930.47;;;21.90;51.25
53900;BME280;40509;32.858;-116.858;2023-05-29T12:08:22;97929.13;;;21.86;51.19
53900;BME280;40509;32.858;-116.858;2023-05-29T12:10:52;97928.97;;;21.87;51.30
53900;BME280;40509;32.858;-116.858;2023-05-29T12:13:20;97934.38;;;21.86;51.15
53900;BME280;40509;32.858;-116.858;2023-05-29T12:15:49;97931.59;;;21.87;51.20
53900;BME280;40509;32.858;-116.858;2023-05-29T12:18:18;97939.63;;;21.86;51.18
53900;BME280;40509;32.858;-116.858;2023-05-29T12:20:45;97941.75;;;21.82;50.94
53900;BME280;40509;32.858;-116.858;2023-05-29T12:23:13;97947.16;;;21.81;51.29
53900;BME280;40509;32.858;-116.858;2023-05-29T12:25:40;97940.47;;;21.86;50.96
53900;BME280;40509;32.858;-116.858;2023-05-29T12:28:16;97937.59;;;21.80;51.33
53900;BME280;40509;32.858;-116.858;2023-05-29T12:30:48;97938.47;;;21.80;51.16
53900;BME280;40509;32.858;-116.858;2023-05-29T12:33:29;97929.06;;;21.78;51.34
53900;BME280;40509;32.858;-116.858;2023-05-29T12:36:08;97927.25;;;21.78;51.10
53900;BME280;40509;32.858;-116.858;2023-05-29T12:41:36;97935.13;;;21.78;51.31
53900;BME280;40509;32.858;-116.858;2023-05-29T12:44:05;97942.75;;;21.81;51.01
53900;BME280;40509;32.858;-116.858;2023-05-29T12:46:39;97936.25;;;21.76;51.06
53900;BME280;40509;32.858;-116.858;2023-05-29T12:49:14;97939.91;;;21.75;51.09
53900;BME280;40509;32.858;-116.858;2023-05-29T12:51:45;97937.09;;;21.76;50.95